createdAt,value
2022-12-08T00:01:30.584Z,6.80
2022-12-08T00:03:59.871Z,6.40
2022-12-08T00:06:59.091Z,6.10
2022-12-08T00:09:39.444Z,7.10
2022-12-08T00:12:18.019Z,8.60
2022-12-08T00:14:47.559Z,6.90
2022-12-08T00:17:16.571Z,6.20
2022-12-08T00:19:44.821Z,6.20
2022-12-08T00:22:13.309Z,6.20
2022-12-08T00:24:42.156Z,7.20
2022-12-08T00:27:11.233Z,6.60
2022-12-08T00:29:38.918Z,5.70
2022-12-08T00:32:06.975Z,7.20
2022-12-08T00:34:34.824Z,7.10
2022-12-08T00:37:02.621Z,6.70
2022-12-08T00:39:30.308Z,8.10
2022-12-08T00:42:13.395Z,7.70
2022-12-08T00:44:45.884Z,7.50
2022-12-08T00:47:14.563Z,7.50
2022-12-08T00:49:42.839Z,7.60
2022-12-08T00:52:12.853Z,7.70
2022-12-08T00:54:40.640Z,8.50
2022-12-08T00:57:08.403Z,10.00
2022-12-08T00:59:36.076Z,9.50
2022-12-08T01:02:03.805Z,8.80
2022-12-08T01:04:31.599Z,9.20
2022-12-08T01:06:59.443Z,12.50
2022-12-08T01:09:27.176Z,10.70
2022-12-08T01:11:55.159Z,10.80
2022-12-08T01:14:22.831Z,12.10
2022-12-08T01:16:50.812Z,12.60
2022-12-08T01:19:18.548Z,12.60
2022-12-08T01:21:46.662Z,12.50
2022-12-08T01:24:17.693Z,12.80
2022-12-08T01:26:46.187Z,13.60
2022-12-08T01:29:14.418Z,13.80
2022-12-08T01:31:42.528Z,13.50
2022-12-08T01:34:11.054Z,13.30
2022-12-08T01:36:39.312Z,14.20
2022-12-08T01:39:10.291Z,14.70
2022-12-08T01:41:38.316Z,14.80
2022-12-08T01:44:10.659Z,15.20
2022-12-08T01:46:40.648Z,15.40
2022-12-08T01:49:14.006Z,16.50
2022-12-08T01:51:46.226Z,18.20
2022-12-08T01:54:14.482Z,18.20
2022-12-08T01:56:52.543Z,19.00
2022-12-08T01:59:21.000Z,19.30
2022-12-08T02:01:52.152Z,19.70
2022-12-08T02:04:20.015Z,21.70
2022-12-08T02:06:49.326Z,21.70
2022-12-08T02:09:17.328Z,21.20
2022-12-08T02:11:45.018Z,21.20
2022-12-08T02:14:13.608Z,22.00
2022-12-08T02:16:49.506Z,22.50
2022-12-08T02:19:51.824Z,22.10
2022-12-08T02:22:48.440Z,24.10
2022-12-08T02:25:43.762Z,24.50
2022-12-08T02:28:32.710Z,24.60
2022-12-08T02:31:34.289Z,24.10
2022-12-08T02:34:20.619Z,24.40
2022-12-08T02:36:59.338Z,25.40
2022-12-08T02:39:44.454Z,24.30
2022-12-08T02:42:19.320Z,23.50
2022-12-08T02:45:02.346Z,22.70
2022-12-08T02:47:30.703Z,22.70
2022-12-08T02:49:58.961Z,21.40
2022-12-08T02:52:26.573Z,20.50
2022-12-08T02:54:59.664Z,21.50
2022-12-08T02:57:34.706Z,21.00
2022-12-08T03:00:11.400Z,20.80
2022-12-08T03:02:57.530Z,21.10
2022-12-08T03:05:49.230Z,19.60
2022-12-08T03:08:49.703Z,20.70
2022-12-08T03:11:22.749Z,19.50
2022-12-08T03:13:52.938Z,20.50
2022-12-08T03:16:24.443Z,22.10
2022-12-08T03:19:20.041Z,18.90
2022-12-08T03:21:51.416Z,18.70
2022-12-08T03:24:19.940Z,19.50
2022-12-08T03:26:51.974Z,20.10
2022-12-08T03:29:19.727Z,19.50
2022-12-08T03:31:54.650Z,19.70
2022-12-08T03:34:24.278Z,18.80
2022-12-08T03:36:51.967Z,18.40
2022-12-08T03:39:19.911Z,18.30
2022-12-08T03:41:47.753Z,17.40
2022-12-08T03:44:15.472Z,17.80
2022-12-08T03:46:43.159Z,17.10
2022-12-08T03:49:10.782Z,16.70
2022-12-08T03:51:38.382Z,16.60
2022-12-08T03:54:06.038Z,17.70
2022-12-08T03:56:36.378Z,17.30
2022-12-08T03:59:05.756Z,17.50
2022-12-08T04:01:33.688Z,17.70
2022-12-08T04:04:01.331Z,17.70
2022-12-08T04:06:29.115Z,17.80
2022-12-08T04:08:56.820Z,17.60
2022-12-08T04:11:24.468Z,18.20
2022-12-08T04:13:52.133Z,17.60
2022-12-08T04:16:22.907Z,22.20
2022-12-08T04:18:50.832Z,17.40
2022-12-08T04:21:18.800Z,17.70
2022-12-08T04:23:46.668Z,17.30
2022-12-08T04:26:15.069Z,17.10
2022-12-08T04:28:42.976Z,17.70
2022-12-08T04:31:10.875Z,17.70
2022-12-08T04:33:38.762Z,17.80
2022-12-08T04:36:07.407Z,16.80
2022-12-08T04:38:35.024Z,18.00
2022-12-08T04:41:02.963Z,19.80
2022-12-08T04:43:30.599Z,19.80
2022-12-08T04:45:58.280Z,20.40
2022-12-08T04:48:26.160Z,20.10
2022-12-08T04:50:53.835Z,18.00
2022-12-08T04:53:21.439Z,18.10
2022-12-08T04:55:49.709Z,17.40
2022-12-08T04:58:19.721Z,18.40
2022-12-08T05:00:48.127Z,17.50
2022-12-08T05:03:16.852Z,17.00
2022-12-08T05:05:44.730Z,18.10
2022-12-08T05:08:12.511Z,17.60
2022-12-08T05:10:40.475Z,17.40
2022-12-08T05:13:08.207Z,17.00
2022-12-08T05:15:35.842Z,17.70
2022-12-08T05:18:05.384Z,18.70
2022-12-08T05:20:33.775Z,17.50
2022-12-08T05:23:01.513Z,17.00
2022-12-08T05:25:29.287Z,17.20
2022-12-08T05:28:17.533Z,18.30
2022-12-08T05:30:44.629Z,19.10
2022-12-08T05:33:12.291Z,18.80
2022-12-08T05:35:40.243Z,18.70
2022-12-08T05:38:07.877Z,19.70
2022-12-08T05:40:38.210Z,18.80
2022-12-08T05:43:06.496Z,19.50
2022-12-08T05:45:34.196Z,18.30
2022-12-08T05:48:02.005Z,19.50
2022-12-08T05:50:29.718Z,23.10
2022-12-08T05:52:57.819Z,20.80
2022-12-08T05:55:25.537Z,20.60
2022-12-08T05:57:53.243Z,18.90
2022-12-08T06:00:21.628Z,20.40
2022-12-08T06:02:49.499Z,22.00
2022-12-08T06:05:17.352Z,21.30
2022-12-08T06:07:45.133Z,22.00
2022-12-08T06:10:13.138Z,21.10
2022-12-08T06:12:40.872Z,23.10
2022-12-08T06:15:09.076Z,22.10
2022-12-08T06:17:36.822Z,21.80
2022-12-08T06:20:06.657Z,22.50
2022-12-08T06:22:34.603Z,22.40
2022-12-08T06:25:05.901Z,22.60
2022-12-08T06:27:34.936Z,23.40
2022-12-08T06:30:03.515Z,24.30
2022-12-08T06:32:32.112Z,24.30
2022-12-08T06:35:00.453Z,24.70
2022-12-08T06:37:28.857Z,26.40
2022-12-08T06:39:56.961Z,26.60
2022-12-08T06:42:43.541Z,29.40
2022-12-08T06:45:13.022Z,29.30
2022-12-08T06:47:41.127Z,30.40
2022-12-08T06:50:10.133Z,31.20
2022-12-08T06:52:47.287Z,32.50
2022-12-08T06:55:42.520Z,32.40
2022-12-08T06:58:04.938Z,31.60
2022-12-08T07:00:32.606Z,31.80
2022-12-08T07:03:00.290Z,33.60
2022-12-08T07:05:28.045Z,32.70
2022-12-08T07:07:55.680Z,34.30
2022-12-08T07:10:23.313Z,36.80
2022-12-08T07:12:50.932Z,35.20
2022-12-08T07:15:19.052Z,37.80
2022-12-08T07:17:48.269Z,35.50
2022-12-08T07:20:16.005Z,34.80
2022-12-08T07:22:53.834Z,36.10
2022-12-08T07:25:21.899Z,36.60
2022-12-08T07:27:51.564Z,38.00
2022-12-08T07:30:19.959Z,37.20
2022-12-08T07:32:47.598Z,36.70
2022-12-08T07:35:15.586Z,50.60
2022-12-08T07:37:43.193Z,45.90
2022-12-08T07:40:11.533Z,40.00
2022-12-08T07:42:39.156Z,36.80
2022-12-08T07:45:07.714Z,36.20
2022-12-08T07:47:35.344Z,35.30
2022-12-08T07:50:04.485Z,35.50
2022-12-08T07:52:34.386Z,36.30
2022-12-08T07:55:02.227Z,33.70
2022-12-08T07:57:29.838Z,34.00
2022-12-08T07:59:57.463Z,33.00
2022-12-08T08:02:26.159Z,32.30
2022-12-08T08:04:54.725Z,32.70
2022-12-08T08:07:22.425Z,33.70
2022-12-08T08:09:50.042Z,32.70
2022-12-08T08:12:33.523Z,32.30
2022-12-08T08:15:01.930Z,34.60
2022-12-08T08:17:30.034Z,35.60
2022-12-08T08:19:57.856Z,37.90
2022-12-08T08:22:25.915Z,37.00
2022-12-08T08:24:54.084Z,38.90
2022-12-08T08:27:22.669Z,43.30
2022-12-08T08:29:50.643Z,39.00
2022-12-08T08:32:18.529Z,39.70
2022-12-08T08:34:46.174Z,38.50
2022-12-08T08:37:13.957Z,38.20
2022-12-08T08:39:43.094Z,37.60
2022-12-08T08:42:10.805Z,36.30
2022-12-08T08:44:39.124Z,36.00
2022-12-08T08:47:06.962Z,37.30
2022-12-08T08:49:34.978Z,37.60
2022-12-08T08:52:04.128Z,39.80
2022-12-08T08:54:32.351Z,38.30
2022-12-08T08:57:00.803Z,40.60
2022-12-08T08:59:28.590Z,38.90
2022-12-08T09:01:56.339Z,39.00
2022-12-08T09:04:25.688Z,41.20
2022-12-08T09:06:53.353Z,37.70
2022-12-08T09:09:20.977Z,37.60
2022-12-08T09:11:48.623Z,36.60
2022-12-08T09:14:16.280Z,37.70
2022-12-08T09:16:44.059Z,35.70
2022-12-08T09:19:11.886Z,35.90
2022-12-08T09:21:39.554Z,52.70
2022-12-08T09:24:08.554Z,36.60
2022-12-08T09:26:36.253Z,36.10
2022-12-08T09:29:03.881Z,41.00
2022-12-08T09:31:31.550Z,39.70
2022-12-08T09:33:59.431Z,38.60
2022-12-08T09:36:27.233Z,39.20
2022-12-08T09:38:54.897Z,39.50
2022-12-08T09:41:38.875Z,40.70
2022-12-08T09:44:19.610Z,39.00
2022-12-08T09:46:49.064Z,39.50
2022-12-08T09:49:19.553Z,39.70
2022-12-08T09:51:47.441Z,36.80
2022-12-08T09:54:36.595Z,37.80
2022-12-08T09:57:08.502Z,37.00
2022-12-08T09:59:36.394Z,36.90
2022-12-08T10:02:13.644Z,36.70
2022-12-08T10:04:41.540Z,36.80
2022-12-08T10:07:27.517Z,40.30
2022-12-08T10:10:26.646Z,36.00
2022-12-08T10:13:01.832Z,35.60
2022-12-08T10:15:56.684Z,35.50
2022-12-08T10:18:30.251Z,35.10
2022-12-08T10:21:05.402Z,36.10
2022-12-08T10:23:35.831Z,37.10
2022-12-08T10:26:11.943Z,37.40
2022-12-08T10:28:44.674Z,39.50
2022-12-08T10:31:21.828Z,39.10
2022-12-08T10:33:58.671Z,40.00
2022-12-08T10:36:54.389Z,40.60
2022-12-08T10:39:35.650Z,52.70
2022-12-08T10:42:15.595Z,47.30
2022-12-08T10:44:57.486Z,44.30
2022-12-08T10:47:27.056Z,40.20
2022-12-08T10:50:18.945Z,40.70
2022-12-08T10:52:58.951Z,42.00
2022-12-08T10:55:27.669Z,44.40
2022-12-08T10:57:55.540Z,40.50
2022-12-08T11:00:28.054Z,39.50
2022-12-08T11:03:01.905Z,40.40
2022-12-08T11:05:34.131Z,39.80
2022-12-08T11:08:03.309Z,39.90
2022-12-08T11:10:37.052Z,38.10
2022-12-08T11:13:07.097Z,38.50
2022-12-08T11:15:38.373Z,36.90
2022-12-08T11:18:22.980Z,39.30
2022-12-08T11:20:59.652Z,45.80
2022-12-08T11:23:29.017Z,38.30
2022-12-08T11:26:01.230Z,42.50
2022-12-08T11:28:29.087Z,42.90
2022-12-08T11:31:09.658Z,41.20
2022-12-08T11:33:37.500Z,36.30
2022-12-08T11:36:08.977Z,33.90
2022-12-08T11:38:41.433Z,32.90
2022-12-08T11:41:16.161Z,31.20
2022-12-08T11:43:53.056Z,33.20
2022-12-08T11:46:28.782Z,30.40
2022-12-08T11:49:05.851Z,30.80
2022-12-08T11:52:05.406Z,31.40
2022-12-08T11:54:36.749Z,32.30
2022-12-08T11:57:07.153Z,36.10
2022-12-08T11:59:39.449Z,36.20
2022-12-08T12:02:29.737Z,39.10
2022-12-08T12:05:03.946Z,41.50
2022-12-08T12:07:54.569Z,35.40
2022-12-08T12:10:22.275Z,33.30
2022-12-08T12:13:27.867Z,31.30
2022-12-08T12:16:11.124Z,34.80
2022-12-08T12:18:46.160Z,29.10
2022-12-08T12:21:46.311Z,39.30
2022-12-08T12:24:29.438Z,30.70
2022-12-08T12:27:04.930Z,41.00
2022-12-08T12:29:35.344Z,27.90
2022-12-08T12:32:06.419Z,36.00
2022-12-08T12:34:57.931Z,28.20
2022-12-08T12:37:40.017Z,32.00
2022-12-08T12:40:18.713Z,25.60
2022-12-08T12:42:50.634Z,28.60
2022-12-08T12:45:18.283Z,25.70
2022-12-08T12:47:48.639Z,26.10
2022-12-08T12:50:32.289Z,36.20
2022-12-08T12:53:18.968Z,38.20
2022-12-08T12:55:52.925Z,24.30
2022-12-08T12:58:29.817Z,22.00
2022-12-08T13:01:12.706Z,22.30
2022-12-08T13:03:47.347Z,21.80
2022-12-08T13:06:22.866Z,18.50
2022-12-08T13:08:53.281Z,20.00
2022-12-08T13:11:21.313Z,20.20
2022-12-08T13:14:01.365Z,22.90
2022-12-08T13:16:34.628Z,21.40
2022-12-08T13:19:05.036Z,25.70
2022-12-08T13:21:42.095Z,23.00
2022-12-08T13:24:10.038Z,21.10
2022-12-08T13:26:45.655Z,19.60
2022-12-08T13:29:23.304Z,20.60
2022-12-08T13:31:59.300Z,20.70
2022-12-08T13:34:46.906Z,19.80
2022-12-08T13:37:28.763Z,20.70
2022-12-08T13:40:05.997Z,21.60
2022-12-08T13:42:42.708Z,22.40
2022-12-08T13:45:39.687Z,21.40
2022-12-08T13:48:59.008Z,23.20
2022-12-08T13:57:12.335Z,23.50
2022-12-08T13:59:44.678Z,26.30
2022-12-08T14:02:31.932Z,23.80
2022-12-08T14:07:50.047Z,26.80
2022-12-08T14:10:28.008Z,27.20
2022-12-08T14:13:00.949Z,25.60
2022-12-08T14:15:34.022Z,26.20
2022-12-08T14:18:05.479Z,26.80
2022-12-08T14:20:51.686Z,26.80
2022-12-08T14:23:19.921Z,27.40
2022-12-08T14:25:48.292Z,27.90
2022-12-08T14:28:16.578Z,27.40
2022-12-08T14:30:44.516Z,28.10
2022-12-08T14:33:15.061Z,25.90
2022-12-08T14:35:42.943Z,27.60
2022-12-08T14:38:18.617Z,28.50
2022-12-08T14:41:01.735Z,28.40
2022-12-08T14:43:31.027Z,27.80
2022-12-08T14:46:06.320Z,28.90
2022-12-08T14:48:34.016Z,29.10
2022-12-08T14:51:05.062Z,29.10
2022-12-08T14:53:36.495Z,30.00
2022-12-08T14:56:11.235Z,29.50
2022-12-08T14:58:38.916Z,28.20
2022-12-08T15:01:10.230Z,28.80
2022-12-08T15:03:37.951Z,27.70
2022-12-08T15:06:07.839Z,29.60
2022-12-08T15:08:55.200Z,28.90
2022-12-08T15:11:22.965Z,30.00
2022-12-08T15:13:52.043Z,30.40
2022-12-08T15:16:40.182Z,29.00
2022-12-08T15:19:27.684Z,30.60
2022-12-08T15:22:13.730Z,31.60
2022-12-08T15:24:41.388Z,31.50
2022-12-08T15:27:10.785Z,32.20
2022-12-08T15:29:38.404Z,32.20
2022-12-08T15:32:09.653Z,31.90
2022-12-08T15:34:37.747Z,30.50
2022-12-08T15:37:18.794Z,32.00
2022-12-08T15:39:46.447Z,50.00
2022-12-08T15:42:14.277Z,43.50
2022-12-08T15:44:42.326Z,31.30
2022-12-08T15:47:21.584Z,32.10
2022-12-08T15:49:50.468Z,33.40
2022-12-08T15:52:23.790Z,33.40
2022-12-08T15:54:51.589Z,33.80
2022-12-08T15:57:53.500Z,35.80
2022-12-08T16:04:09.438Z,34.40
2022-12-08T16:09:12.975Z,34.70
2022-12-08T16:12:09.363Z,35.90
2022-12-08T16:17:27.100Z,34.80
2022-12-08T16:19:55.205Z,33.40
2022-12-08T16:25:19.435Z,33.50
2022-12-08T16:28:29.331Z,33.50
2022-12-08T16:30:38.639Z,33.10
2022-12-08T16:33:06.279Z,32.50
2022-12-08T16:35:34.121Z,32.20
2022-12-08T16:38:01.807Z,32.20
2022-12-08T16:40:30.066Z,33.90
2022-12-08T16:42:57.742Z,33.30
2022-12-08T16:45:27.979Z,33.60
2022-12-08T16:48:00.449Z,73.80
2022-12-08T16:50:30.255Z,53.60
2022-12-08T16:53:04.360Z,93.30
2022-12-08T16:55:32.628Z,44.70
2022-12-08T16:58:00.632Z,36.60
2022-12-08T17:00:29.460Z,41.80
2022-12-08T17:02:58.617Z,32.40
2022-12-08T17:05:26.598Z,65.20
2022-12-08T17:07:54.809Z,71.20
2022-12-08T17:10:25.330Z,55.70
2022-12-08T17:12:53.440Z,32.90
2022-12-08T17:15:23.232Z,41.20
2022-12-08T17:17:51.665Z,32.10
2022-12-08T17:20:22.197Z,30.50
2022-12-08T17:22:50.450Z,29.80
2022-12-08T17:25:18.356Z,29.00
2022-12-08T17:27:45.984Z,30.60
2022-12-08T17:30:15.684Z,28.80
2022-12-08T17:32:43.557Z,29.70
2022-12-08T17:35:12.379Z,28.30
2022-12-08T17:37:40.457Z,27.40
2022-12-08T17:40:09.028Z,29.90
2022-12-08T17:42:38.097Z,27.90
2022-12-08T17:45:07.651Z,30.20
2022-12-08T17:47:36.319Z,27.70
2022-12-08T17:50:06.204Z,29.70
2022-12-08T17:52:34.182Z,28.70
2022-12-08T17:55:01.994Z,27.10
2022-12-08T17:57:30.648Z,27.70
2022-12-08T17:59:58.340Z,28.10
2022-12-08T18:02:26.238Z,27.50
2022-12-08T18:04:54.129Z,28.80
2022-12-08T18:07:21.818Z,28.60
2022-12-08T18:09:51.480Z,27.00
2022-12-08T18:12:23.635Z,27.00
2022-12-08T18:14:52.659Z,27.40
2022-12-08T18:17:20.787Z,28.60
2022-12-08T18:19:49.251Z,26.20
2022-12-08T18:22:17.650Z,30.70
2022-12-08T18:24:47.661Z,32.70
2022-12-08T18:27:15.511Z,30.70
2022-12-08T18:29:43.274Z,28.20
2022-12-08T18:32:11.215Z,29.20
2022-12-08T18:34:38.909Z,28.00
2022-12-08T18:37:07.464Z,35.30
2022-12-08T18:39:35.613Z,27.60
2022-12-08T18:42:22.626Z,37.20
2022-12-08T18:45:02.179Z,35.50
2022-12-08T18:47:31.491Z,34.50
2022-12-08T18:49:59.364Z,50.60
2022-12-08T18:52:32.265Z,44.20
2022-12-08T18:55:08.242Z,38.00
2022-12-08T18:57:41.616Z,35.70
2022-12-08T19:00:12.698Z,41.40
2022-12-08T19:02:41.013Z,34.70
2022-12-08T19:05:10.834Z,35.00
2022-12-08T19:07:38.945Z,32.60
2022-12-08T19:10:07.754Z,34.40
2022-12-08T19:12:35.639Z,32.10
2022-12-08T19:15:04.568Z,43.30
2022-12-08T19:17:32.545Z,37.70
2022-12-08T19:20:00.272Z,34.90
2022-12-08T19:22:27.953Z,33.70
2022-12-08T19:24:55.917Z,32.90
2022-12-08T19:27:23.533Z,32.70
2022-12-08T19:29:51.205Z,31.90
2022-12-08T19:32:18.854Z,31.90
2022-12-08T19:34:46.683Z,36.20
2022-12-08T19:37:14.362Z,32.70
2022-12-08T19:40:01.035Z,36.50
2022-12-08T19:42:47.657Z,38.00
2022-12-08T19:45:19.706Z,34.00
2022-12-08T19:47:48.403Z,42.20
2022-12-08T19:50:35.342Z,32.70
2022-12-08T19:53:05.645Z,39.50
2022-12-08T19:55:33.359Z,33.20
2022-12-08T19:58:01.888Z,34.20
2022-12-08T20:00:30.984Z,34.20
2022-12-08T20:02:59.899Z,36.50
2022-12-08T20:05:29.420Z,35.50
2022-12-08T20:07:57.533Z,36.90
2022-12-08T20:10:28.320Z,36.30
2022-12-08T20:13:16.596Z,35.80
2022-12-08T20:15:45.118Z,34.60
2022-12-08T20:18:13.791Z,40.00
2022-12-08T20:20:42.713Z,38.00
2022-12-08T20:23:10.757Z,38.10
2022-12-08T20:25:39.841Z,38.30
2022-12-08T20:28:07.631Z,50.20
2022-12-08T20:30:38.240Z,83.70
2022-12-08T20:33:06.078Z,85.90
2022-12-08T20:35:34.027Z,61.10
2022-12-08T20:38:01.717Z,40.90
2022-12-08T20:40:29.391Z,48.00
2022-12-08T20:42:57.012Z,39.50
2022-12-08T20:45:24.667Z,41.20
2022-12-08T20:47:52.532Z,41.00
2022-12-08T20:50:20.206Z,42.00
2022-12-08T20:52:47.909Z,39.70
2022-12-08T20:55:15.759Z,39.40
2022-12-08T20:57:43.573Z,40.60
2022-12-08T21:00:12.290Z,38.40
2022-12-08T21:02:46.836Z,38.60
2022-12-08T21:05:16.808Z,39.30
2022-12-08T21:07:44.675Z,39.60
2022-12-08T21:10:12.680Z,40.80
2022-12-08T21:12:40.575Z,39.40
2022-12-08T21:15:11.393Z,40.90
2022-12-08T21:17:39.261Z,40.00
2022-12-08T21:20:08.219Z,42.60
2022-12-08T21:22:36.169Z,40.00
2022-12-08T21:25:04.127Z,41.60
2022-12-08T21:27:32.281Z,42.20
2022-12-08T21:30:00.015Z,42.10
2022-12-08T21:32:30.678Z,39.30
2022-12-08T21:34:58.983Z,41.90
2022-12-08T21:37:26.785Z,42.90
2022-12-08T21:39:54.685Z,42.90
2022-12-08T21:42:41.505Z,44.80
2022-12-08T21:45:11.618Z,42.20
2022-12-08T21:47:39.915Z,43.10
2022-12-08T21:50:09.074Z,43.20
2022-12-08T21:52:39.125Z,47.30
2022-12-08T21:55:08.529Z,45.50
2022-12-08T21:57:36.262Z,44.80
2022-12-08T22:00:06.891Z,49.20
2022-12-08T22:02:35.348Z,50.10
2022-12-08T22:05:03.905Z,46.60
2022-12-08T22:07:31.726Z,45.80
2022-12-08T22:09:59.416Z,45.70
2022-12-08T22:12:27.490Z,45.30
2022-12-08T22:14:55.395Z,45.30
2022-12-08T22:17:23.298Z,46.80
2022-12-08T22:19:51.019Z,46.80
2022-12-08T22:22:18.830Z,46.60
2022-12-08T22:24:46.665Z,45.80
2022-12-08T22:27:14.655Z,46.10
2022-12-08T22:29:42.549Z,53.20
2022-12-08T22:32:10.457Z,49.10
2022-12-08T22:34:38.418Z,56.60
2022-12-08T22:37:06.083Z,47.60
2022-12-08T22:39:35.728Z,49.80
2022-12-08T22:42:04.148Z,48.40
2022-12-08T22:44:31.872Z,55.00
2022-12-08T22:46:59.692Z,47.00
2022-12-08T22:49:28.920Z,49.00
2022-12-08T22:51:56.625Z,46.70
2022-12-08T22:54:24.422Z,47.30
2022-12-08T22:56:52.351Z,48.50
2022-12-08T22:59:20.087Z,49.50
2022-12-08T23:01:47.827Z,48.30
2022-12-08T23:04:18.413Z,49.50
2022-12-08T23:06:46.450Z,46.90
2022-12-08T23:09:14.201Z,48.20
2022-12-08T23:11:42.275Z,46.80
2022-12-08T23:14:10.009Z,47.30
2022-12-08T23:16:38.460Z,47.90
2022-12-08T23:19:06.428Z,49.00
2022-12-08T23:21:34.195Z,51.80
2022-12-08T23:24:02.049Z,49.40
2022-12-08T23:26:32.141Z,50.40
2022-12-08T23:29:00.111Z,52.70
2022-12-08T23:31:28.479Z,55.10
2022-12-08T23:33:56.458Z,57.40
2022-12-08T23:36:27.419Z,53.30
2022-12-08T23:38:57.645Z,51.70
2022-12-08T23:41:25.368Z,53.50
2022-12-08T23:43:53.303Z,63.40
2022-12-08T23:46:22.628Z,55.80
2022-12-08T23:48:51.026Z,72.50
2022-12-08T23:51:19.544Z,56.60
2022-12-08T23:53:47.636Z,77.00
2022-12-08T23:56:17.364Z,58.00
2022-12-08T23:58:46.012Z,56.50
